createdAt,value
2019-05-26T00:01:39.541Z,96184.81
2019-05-26T00:04:06.658Z,96184.81
2019-05-26T00:06:33.733Z,96182.64
2019-05-26T00:09:00.818Z,96182.64
2019-05-26T00:11:27.900Z,96182.11
2019-05-26T00:13:54.991Z,96184.00
2019-05-26T00:16:22.057Z,96182.37
2019-05-26T00:18:49.147Z,96181.02
2019-05-26T00:21:16.243Z,96178.85
2019-05-26T00:23:43.351Z,96178.85
2019-05-26T00:26:10.392Z,96186.16
2019-05-26T00:28:37.463Z,96181.30
2019-05-26T00:31:04.602Z,96179.14
2019-05-26T00:33:31.701Z,96183.45
2019-05-26T00:35:58.841Z,96179.14
2019-05-26T00:38:25.931Z,96179.14
2019-05-26T00:40:53.027Z,96178.06
2019-05-26T00:43:20.116Z,96181.02
2019-05-26T00:45:47.201Z,96181.02
2019-05-26T00:48:14.301Z,96179.38
2019-05-26T00:50:41.463Z,96179.38
2019-05-26T00:53:08.568Z,96179.38
2019-05-26T00:55:35.662Z,96176.13
2019-05-26T00:58:02.767Z,96178.56
2019-05-26T01:00:37.181Z,96178.56
2019-05-26T01:03:04.259Z,96181.00
2019-05-26T01:05:31.328Z,96176.13
2019-05-26T01:08:06.174Z,96169.64
2019-05-26T01:10:27.424Z,96176.94
2019-05-26T01:12:54.536Z,96177.48
2019-05-26T01:15:21.634Z,96175.84
2019-05-26T01:17:48.694Z,96176.13
2019-05-26T01:20:15.889Z,96176.94
2019-05-26T01:22:42.979Z,96173.14
2019-05-26T01:25:15.753Z,96177.75
2019-05-26T01:27:42.818Z,96176.13
2019-05-26T01:30:10.095Z,96179.66
2019-05-26T01:32:37.179Z,96182.89
2019-05-26T01:35:04.561Z,96182.89
2019-05-26T01:37:31.757Z,96182.89
2019-05-26T01:39:58.844Z,96182.89
2019-05-26T01:42:25.919Z,96181.53
2019-05-26T01:44:52.996Z,96189.37
2019-05-26T01:47:20.052Z,96191.27
2019-05-26T01:49:47.138Z,96186.12
2019-05-26T01:52:14.224Z,96192.34
2019-05-26T01:54:41.310Z,96192.34
2019-05-26T01:57:08.400Z,96192.34
2019-05-26T01:59:35.466Z,96192.34
2019-05-26T02:02:02.507Z,96200.19
2019-05-26T02:04:29.612Z,96198.83
2019-05-26T02:06:56.702Z,96198.03
2019-05-26T02:09:23.798Z,96199.37
2019-05-26T02:11:50.869Z,96201.02
2019-05-26T02:14:17.948Z,96196.66
2019-05-26T02:16:45.022Z,96196.66
2019-05-26T02:19:12.114Z,96195.31
2019-05-26T02:21:39.200Z,96186.42
2019-05-26T02:24:06.349Z,96186.42
2019-05-26T02:26:33.475Z,96187.22
2019-05-26T02:29:00.549Z,96190.73
2019-05-26T02:31:27.645Z,96190.20
2019-05-26T02:33:54.710Z,96184.23
2019-05-26T02:36:21.814Z,96193.71
2019-05-26T02:39:01.014Z,96187.50
2019-05-26T02:41:17.883Z,96187.50
2019-05-26T02:43:44.947Z,96195.59
2019-05-26T02:46:12.034Z,96193.97
2019-05-26T02:48:39.164Z,96200.73
2019-05-26T02:51:06.218Z,96203.16
2019-05-26T02:53:33.266Z,96202.36
2019-05-26T02:56:00.518Z,96207.49
2019-05-26T02:58:27.556Z,96207.49
2019-05-26T03:00:54.616Z,96211.27
2019-05-26T03:03:21.804Z,96207.22
2019-05-26T03:05:49.289Z,96209.64
2019-05-26T03:08:16.545Z,96211.29
2019-05-26T03:10:43.727Z,96211.55
2019-05-26T03:13:14.409Z,96212.63
2019-05-26T03:15:43.474Z,96221.81
2019-05-26T03:18:10.519Z,96217.48
2019-05-26T03:20:38.689Z,96220.72
2019-05-26T03:23:06.502Z,96221.52
2019-05-26T03:25:34.089Z,96220.98
2019-05-26T03:28:01.219Z,96220.97
2019-05-26T03:30:28.314Z,96221.26
2019-05-26T03:32:55.422Z,96221.26
2019-05-26T03:35:22.524Z,96224.50
2019-05-26T03:37:49.593Z,96224.50
2019-05-26T03:40:17.971Z,96218.00
2019-05-26T03:42:45.053Z,96218.00
2019-05-26T03:45:33.571Z,96221.24
2019-05-26T03:48:00.668Z,96221.24
2019-05-26T03:50:27.717Z,96220.43
2019-05-26T03:52:54.786Z,96212.05
2019-05-26T03:55:21.834Z,96210.97
2019-05-26T03:57:48.941Z,96210.17
2019-05-26T04:00:16.020Z,96211.00
2019-05-26T04:02:43.102Z,96209.92
2019-05-26T04:05:10.203Z,96209.92
2019-05-26T04:07:37.253Z,96212.36
2019-05-26T04:10:06.216Z,96205.33
2019-05-26T04:12:33.487Z,96205.33
2019-05-26T04:15:00.572Z,96211.55
2019-05-26T04:17:27.659Z,96207.49
2019-05-26T04:19:54.727Z,96207.77
2019-05-26T04:22:21.771Z,96205.61
2019-05-26T04:24:48.831Z,96201.03
2019-05-26T04:27:15.946Z,96206.70
2019-05-26T04:29:43.091Z,96223.80
2019-05-26T04:32:10.211Z,96216.80
2019-05-26T04:34:37.301Z,96216.80
2019-05-26T04:37:04.432Z,96215.84
2019-05-26T04:39:31.512Z,96217.47
2019-05-26T04:41:58.592Z,96217.72
2019-05-26T04:44:25.652Z,96217.72
2019-05-26T04:46:52.740Z,96208.78
2019-05-26T04:49:19.804Z,96215.53
2019-05-26T04:51:46.883Z,96217.97
2019-05-26T04:54:13.932Z,96217.12
2019-05-26T04:56:41.059Z,96221.42
2019-05-26T04:59:08.138Z,96214.37
2019-05-26T05:01:35.260Z,96224.36
2019-05-26T05:04:02.426Z,96217.28
2019-05-26T05:06:29.512Z,96215.36
2019-05-26T05:08:56.600Z,96221.59
2019-05-26T05:11:23.665Z,96225.64
2019-05-26T05:13:50.754Z,96223.47
2019-05-26T05:16:17.822Z,96228.02
2019-05-26T05:18:44.910Z,96229.34
2019-05-26T05:21:11.942Z,96226.30
2019-05-26T05:23:39.027Z,96229.28
2019-05-26T05:26:06.118Z,96229.53
2019-05-26T05:28:33.217Z,96228.16
2019-05-26T05:31:00.294Z,96234.88
2019-05-26T05:33:27.405Z,96229.79
2019-05-26T05:35:54.471Z,96231.14
2019-05-26T05:38:21.527Z,96235.50
2019-05-26T05:40:59.119Z,96236.62
2019-05-26T05:43:17.579Z,96235.91
2019-05-26T05:45:44.649Z,96231.10
2019-05-26T05:48:11.758Z,96230.56
2019-05-26T05:50:39.474Z,96234.39
2019-05-26T05:53:06.658Z,96235.42
2019-05-26T05:55:33.717Z,96233.42
2019-05-26T05:58:00.789Z,96227.93
2019-05-26T06:00:27.868Z,96236.88
2019-05-26T06:02:55.134Z,96231.98
2019-05-26T06:05:22.225Z,96234.98
2019-05-26T06:07:49.253Z,96229.08
2019-05-26T06:10:16.804Z,96229.34
2019-05-26T06:12:43.914Z,96236.70
2019-05-26T06:15:12.007Z,96238.39
2019-05-26T06:17:39.463Z,96239.20
2019-05-26T06:20:06.840Z,96235.68
2019-05-26T06:22:33.949Z,96245.63
2019-05-26T06:25:01.005Z,96238.85
2019-05-26T06:27:28.076Z,96242.12
2019-05-26T06:29:58.755Z,96242.70
2019-05-26T06:32:24.096Z,96238.67
2019-05-26T06:34:51.168Z,96241.67
2019-05-26T06:37:18.260Z,96249.27
2019-05-26T06:39:45.365Z,96245.75
2019-05-26T06:42:13.312Z,96254.69
2019-05-26T06:44:53.105Z,96255.50
2019-05-26T06:47:09.521Z,96259.30
2019-05-26T06:49:36.606Z,96247.89
2019-05-26T06:52:03.749Z,96248.11
2019-05-26T06:54:30.808Z,96255.14
2019-05-26T06:56:57.951Z,96253.77
2019-05-26T06:59:25.014Z,96254.04
2019-05-26T07:01:52.091Z,96258.94
2019-05-26T07:04:20.100Z,96264.66
2019-05-26T07:06:47.207Z,96255.68
2019-05-26T07:09:14.299Z,96259.98
2019-05-26T07:11:55.653Z,96257.25
2019-05-26T07:14:10.349Z,96264.58
2019-05-26T07:16:38.851Z,96262.19
2019-05-26T07:19:06.095Z,96267.56
2019-05-26T07:21:33.222Z,96273.52
2019-05-26T07:24:00.278Z,96273.23
2019-05-26T07:26:27.351Z,96278.11
2019-05-26T07:28:54.412Z,96279.41
2019-05-26T07:31:21.510Z,96275.33
2019-05-26T07:33:48.590Z,96287.81
2019-05-26T07:36:15.686Z,96290.52
2019-05-26T07:38:42.772Z,96287.84
2019-05-26T07:41:09.882Z,96289.52
2019-05-26T07:43:36.952Z,96291.63
2019-05-26T07:46:04.036Z,96291.06
2019-05-26T07:48:35.373Z,96282.95
2019-05-26T07:51:00.128Z,96285.11
2019-05-26T07:53:27.214Z,96288.28
2019-05-26T07:55:54.327Z,96274.44
2019-05-26T07:58:21.417Z,96279.58
2019-05-26T08:00:48.508Z,96284.17
2019-05-26T08:03:15.603Z,96284.14
2019-05-26T08:05:42.686Z,96283.81
2019-05-26T08:08:13.035Z,96276.47
2019-05-26T08:10:38.814Z,96281.09
2019-05-26T08:13:05.869Z,96282.70
2019-05-26T08:15:32.934Z,96282.98
2019-05-26T08:18:00.058Z,96294.25
2019-05-26T08:20:27.131Z,96294.80
2019-05-26T08:22:54.241Z,96287.33
2019-05-26T08:25:21.349Z,96285.60
2019-05-26T08:27:48.448Z,96285.12
2019-05-26T08:30:15.537Z,96287.82
2019-05-26T08:32:42.627Z,96283.31
2019-05-26T08:35:09.929Z,96285.69
2019-05-26T08:37:36.999Z,96279.33
2019-05-26T08:40:19.147Z,96282.48
2019-05-26T08:42:47.218Z,96280.09
2019-05-26T08:45:14.377Z,96279.33
2019-05-26T08:47:41.580Z,96276.06
2019-05-26T08:50:08.675Z,96273.53
2019-05-26T08:52:35.756Z,96272.13
2019-05-26T08:55:02.941Z,96265.09
2019-05-26T08:57:30.052Z,96259.53
2019-05-26T08:59:57.101Z,96261.83
2019-05-26T09:02:24.195Z,96258.77
2019-05-26T09:04:51.322Z,96259.63
2019-05-26T09:07:18.452Z,96252.22
2019-05-26T09:09:45.548Z,96245.84
2019-05-26T09:12:12.731Z,96248.34
2019-05-26T09:14:39.839Z,96248.17
2019-05-26T09:17:06.929Z,96249.55
2019-05-26T09:19:33.994Z,96240.20
2019-05-26T09:22:01.079Z,96245.14
2019-05-26T09:24:28.128Z,96236.75
2019-05-26T09:26:55.250Z,96238.37
2019-05-26T09:29:22.335Z,96240.59
2019-05-26T09:31:49.433Z,96230.55
2019-05-26T09:34:16.501Z,96229.47
2019-05-26T09:36:43.576Z,96220.79
2019-05-26T09:39:10.658Z,96223.23
2019-05-26T09:41:37.841Z,96221.45
2019-05-26T09:44:05.007Z,96213.59
2019-05-26T09:46:32.142Z,96216.23
2019-05-26T09:49:01.024Z,96215.10
2019-05-26T09:51:28.200Z,96210.75
2019-05-26T09:54:01.817Z,96206.67
2019-05-26T09:56:24.236Z,96204.73
2019-05-26T09:58:51.356Z,96202.98
2019-05-26T10:01:18.459Z,96204.16
2019-05-26T10:03:45.626Z,96204.03
2019-05-26T10:06:12.750Z,96204.09
2019-05-26T10:08:39.902Z,96203.31
2019-05-26T10:11:06.995Z,96203.36
2019-05-26T10:13:34.120Z,96197.27
2019-05-26T10:16:01.218Z,96204.47
2019-05-26T10:18:28.306Z,96191.81
2019-05-26T10:20:55.435Z,96197.72
2019-05-26T10:23:22.504Z,96194.82
2019-05-26T10:25:49.614Z,96191.35
2019-05-26T10:28:16.654Z,96190.86
2019-05-26T10:30:43.765Z,96191.85
2019-05-26T10:33:10.838Z,96193.47
2019-05-26T10:35:37.917Z,96197.19
2019-05-26T10:38:05.020Z,96188.77
2019-05-26T10:40:32.118Z,96189.05
2019-05-26T10:42:59.200Z,96186.53
2019-05-26T10:45:26.267Z,96184.10
2019-05-26T10:47:53.335Z,96183.69
2019-05-26T10:50:20.543Z,96175.45
2019-05-26T10:52:47.651Z,96179.20
2019-05-26T10:55:17.027Z,96175.42
2019-05-26T10:57:44.147Z,96178.82
2019-05-26T11:00:12.923Z,96174.73
2019-05-26T11:02:40.017Z,96175.00
2019-05-26T11:05:08.236Z,96166.07
2019-05-26T11:07:35.326Z,96172.39
2019-05-26T11:10:02.485Z,96172.43
2019-05-26T11:12:29.587Z,96163.14
2019-05-26T11:14:56.707Z,96161.41
2019-05-26T11:17:23.787Z,96155.89
2019-05-26T11:19:51.005Z,96150.69
2019-05-26T11:22:18.124Z,96149.69
2019-05-26T11:24:45.217Z,96143.59
2019-05-26T11:27:13.587Z,96129.02
2019-05-26T11:29:41.333Z,96133.30
2019-05-26T11:32:08.420Z,96122.11
2019-05-26T11:34:35.475Z,96120.20
2019-05-26T11:37:02.576Z,96115.59
2019-05-26T11:39:29.730Z,96117.36
2019-05-26T11:42:10.551Z,96113.56
2019-05-26T11:44:25.769Z,96110.90
2019-05-26T11:46:52.866Z,96107.93
2019-05-26T11:49:19.966Z,96113.39
2019-05-26T11:51:47.093Z,96113.70
2019-05-26T11:54:14.161Z,96099.25
2019-05-26T11:56:41.266Z,96093.05
2019-05-26T11:59:08.362Z,96086.98
2019-05-26T12:01:35.458Z,96084.05
2019-05-26T12:04:02.525Z,96079.52
2019-05-26T12:06:29.630Z,96079.27
2019-05-26T12:08:56.708Z,96078.45
2019-05-26T12:11:23.806Z,96075.03
2019-05-26T12:13:50.905Z,96072.07
2019-05-26T12:16:18.036Z,96065.17
2019-05-26T12:18:45.152Z,96071.39
2019-05-26T12:21:12.251Z,96069.85
2019-05-26T12:23:39.329Z,96061.55
2019-05-26T12:26:06.458Z,96057.28
2019-05-26T12:28:33.582Z,96056.11
2019-05-26T12:31:00.696Z,96053.48
2019-05-26T12:33:27.769Z,96046.59
2019-05-26T12:35:54.907Z,96051.19
2019-05-26T12:38:22.041Z,96047.34
2019-05-26T12:40:49.102Z,96042.75
2019-05-26T12:43:16.245Z,96032.00
2019-05-26T12:45:43.294Z,96036.88
2019-05-26T12:48:10.377Z,96029.89
2019-05-26T12:50:37.552Z,96031.15
2019-05-26T12:53:06.465Z,96030.73
2019-05-26T12:55:33.563Z,96023.88
2019-05-26T12:58:00.665Z,96023.62
2019-05-26T13:00:27.752Z,96021.43
2019-05-26T13:02:55.187Z,96017.69
2019-05-26T13:05:22.263Z,96018.32
2019-05-26T13:07:49.371Z,96023.61
2019-05-26T13:10:17.319Z,96014.62
2019-05-26T13:12:44.488Z,96012.43
2019-05-26T13:15:13.278Z,96005.46
2019-05-26T13:17:40.345Z,95999.69
2019-05-26T13:20:08.172Z,95995.38
2019-05-26T13:22:35.357Z,95996.75
2019-05-26T13:25:02.702Z,95990.52
2019-05-26T13:27:29.825Z,95989.21
2019-05-26T13:29:56.920Z,95993.82
2019-05-26T13:32:24.022Z,95988.73
2019-05-26T13:34:51.110Z,95988.98
2019-05-26T13:37:18.230Z,95983.19
2019-05-26T13:39:45.323Z,95991.05
2019-05-26T13:42:12.425Z,95993.73
2019-05-26T13:44:39.496Z,95991.43
2019-05-26T13:47:06.616Z,95981.26
2019-05-26T13:49:33.742Z,95980.96
2019-05-26T13:52:00.795Z,95983.02
2019-05-26T13:54:27.889Z,95978.16
2019-05-26T13:56:55.026Z,95963.38
2019-05-26T13:59:22.118Z,95969.00
2019-05-26T14:01:49.210Z,95971.19
2019-05-26T14:04:16.311Z,95969.30
2019-05-26T14:06:43.374Z,95960.08
2019-05-26T14:09:10.565Z,95963.77
2019-05-26T14:11:37.635Z,95964.56
2019-05-26T14:14:04.832Z,95959.41
2019-05-26T14:16:33.411Z,95961.08
2019-05-26T14:19:01.604Z,95965.75
2019-05-26T14:21:28.730Z,95962.22
2019-05-26T14:23:55.814Z,95955.53
2019-05-26T14:26:22.935Z,95958.48
2019-05-26T14:28:50.017Z,95965.11
2019-05-26T14:31:17.144Z,95961.52
2019-05-26T14:33:44.256Z,95957.50
2019-05-26T14:36:11.371Z,95955.75
2019-05-26T14:38:43.344Z,95950.06
2019-05-26T14:41:07.482Z,95957.41
2019-05-26T14:43:34.569Z,95949.77
2019-05-26T14:46:01.684Z,95956.36
2019-05-26T14:48:28.790Z,95964.90
2019-05-26T14:50:55.867Z,95958.39
2019-05-26T14:53:22.952Z,95959.23
2019-05-26T14:58:24.861Z,95948.93
2019-05-26T15:00:51.962Z,95955.12
2019-05-26T15:03:19.085Z,95945.84
2019-05-26T15:05:46.164Z,95940.38
2019-05-26T15:08:13.297Z,95944.64
2019-05-26T15:10:40.352Z,95931.84
2019-05-26T15:13:07.472Z,95927.56
2019-05-26T15:15:35.198Z,95933.03
2019-05-26T15:18:02.342Z,95933.94
2019-05-26T15:20:29.421Z,95935.34
2019-05-26T15:22:56.555Z,95934.90
2019-05-26T15:25:23.611Z,95930.66
2019-05-26T15:27:50.742Z,95936.72
2019-05-26T15:32:57.340Z,95926.83
2019-05-26T15:35:35.950Z,95921.39
2019-05-26T15:38:03.064Z,95923.30
2019-05-26T15:40:30.145Z,95922.39
2019-05-26T15:42:57.236Z,95923.80
2019-05-26T15:45:24.395Z,95926.52
2019-05-26T15:47:51.483Z,95920.77
2019-05-26T15:50:18.677Z,95918.80
2019-05-26T15:52:45.825Z,95927.86
2019-05-26T15:55:17.799Z,95923.02
2019-05-26T15:57:44.883Z,95921.48
2019-05-26T16:00:11.987Z,95918.30
2019-05-26T16:02:39.045Z,95913.27
2019-05-26T16:05:06.473Z,95912.31
2019-05-26T16:07:33.590Z,95913.11
2019-05-26T16:10:00.652Z,95912.70
2019-05-26T16:12:27.745Z,95905.91
2019-05-26T16:14:54.837Z,95902.89
2019-05-26T16:17:21.966Z,95902.39
2019-05-26T16:19:49.029Z,95902.23
2019-05-26T16:22:16.141Z,95904.97
2019-05-26T16:24:43.203Z,95902.78
2019-05-26T16:27:19.249Z,95911.08
2019-05-26T16:29:39.292Z,95904.91
2019-05-26T16:32:06.381Z,95893.45
2019-05-26T16:34:33.480Z,95900.78
2019-05-26T16:37:00.587Z,95908.34
2019-05-26T16:39:36.468Z,95914.29
2019-05-26T16:42:03.132Z,95910.97
2019-05-26T16:44:30.205Z,95905.88
2019-05-26T16:46:57.279Z,95902.58
2019-05-26T16:49:24.391Z,95899.58
2019-05-26T16:51:51.476Z,95903.79
2019-05-26T16:54:18.581Z,95902.84
2019-05-26T16:56:45.666Z,95894.44
2019-05-26T16:59:12.766Z,95891.81
2019-05-26T17:01:39.846Z,95889.94
2019-05-26T17:04:06.912Z,95894.91
2019-05-26T17:06:33.979Z,95884.27
2019-05-26T17:09:01.050Z,95882.66
2019-05-26T17:11:28.153Z,95884.16
2019-05-26T17:13:55.244Z,95886.77
2019-05-26T17:16:22.363Z,95881.20
2019-05-26T17:18:49.525Z,95878.41
2019-05-26T17:21:16.592Z,95884.31
2019-05-26T17:23:43.707Z,95881.32
2019-05-26T17:26:10.799Z,95882.37
2019-05-26T17:28:37.867Z,95882.57
2019-05-26T17:31:05.014Z,95886.41
2019-05-26T17:33:32.103Z,95884.61
2019-05-26T17:35:59.224Z,95887.41
2019-05-26T17:38:26.311Z,95886.63
2019-05-26T17:40:53.405Z,95891.66
2019-05-26T17:43:20.481Z,95891.66
2019-05-26T17:45:47.605Z,95885.11
2019-05-26T17:48:14.703Z,95884.08
2019-05-26T17:50:41.806Z,95878.22
2019-05-26T17:53:08.918Z,95880.75
2019-05-26T17:55:36.007Z,95879.08
2019-05-26T17:58:03.139Z,95882.02
2019-05-26T18:00:30.268Z,95879.68
2019-05-26T18:02:57.360Z,95875.76
2019-05-26T18:05:24.436Z,95879.14
2019-05-26T18:07:51.526Z,95879.88
2019-05-26T18:10:19.456Z,95881.96
2019-05-26T18:12:46.560Z,95875.23
2019-05-26T18:15:13.746Z,95874.22
2019-05-26T18:17:46.871Z,95874.73
2019-05-26T18:20:10.005Z,95877.66
2019-05-26T18:22:37.117Z,95871.45
2019-05-26T18:25:04.472Z,95876.13
2019-05-26T18:27:31.582Z,95873.46
2019-05-26T18:29:58.665Z,95878.34
2019-05-26T18:32:25.767Z,95877.31
2019-05-26T18:34:52.884Z,95871.84
2019-05-26T18:37:19.958Z,95874.62
2019-05-26T18:39:47.057Z,95877.03
2019-05-26T18:42:14.021Z,95880.23
2019-05-26T18:44:41.100Z,95879.04
2019-05-26T18:47:08.044Z,95881.66
2019-05-26T18:49:35.113Z,95887.84
2019-05-26T18:52:02.087Z,95883.61
2019-05-26T18:54:29.093Z,95887.63
2019-05-26T18:56:56.108Z,95891.88
2019-05-26T18:59:23.241Z,95897.15
2019-05-26T19:01:50.283Z,95898.09
2019-05-26T19:04:17.406Z,95893.03
2019-05-26T19:06:44.450Z,95895.27
2019-05-26T19:09:11.559Z,95892.39
2019-05-26T19:11:38.654Z,95890.13
2019-05-26T19:14:05.762Z,95899.91
2019-05-26T19:16:32.876Z,95896.27
2019-05-26T19:18:59.999Z,95899.53
2019-05-26T19:21:27.126Z,95901.94
2019-05-26T19:23:54.210Z,95901.02
2019-05-26T19:26:21.317Z,95901.54
2019-05-26T19:28:48.362Z,95905.33
2019-05-26T19:31:15.457Z,95904.48
2019-05-26T19:33:42.594Z,95901.02
2019-05-26T19:36:09.964Z,95902.88
2019-05-26T19:38:37.003Z,95904.86
2019-05-26T19:41:04.101Z,95910.89
2019-05-26T19:43:31.183Z,95899.83
2019-05-26T19:45:58.272Z,95903.73
2019-05-26T19:48:35.886Z,95907.63
2019-05-26T19:51:04.280Z,95905.86
2019-05-26T19:53:31.371Z,95903.28
2019-05-26T19:55:58.452Z,95900.22
2019-05-26T19:58:28.535Z,95898.67
2019-05-26T20:00:54.557Z,95907.19
2019-05-26T20:03:21.681Z,95905.89
2019-05-26T20:05:48.778Z,95910.03
2019-05-26T20:08:15.830Z,95910.09
2019-05-26T20:10:42.918Z,95914.53
2019-05-26T20:13:09.991Z,95915.11
2019-05-26T20:15:37.090Z,95912.70
2019-05-26T20:18:04.388Z,95916.84
2019-05-26T20:20:31.647Z,95912.60
2019-05-26T20:22:58.736Z,95917.00
2019-05-26T20:25:26.487Z,95926.53
2019-05-26T20:27:53.569Z,95918.44
2019-05-26T20:30:22.239Z,95926.67
2019-05-26T20:32:55.725Z,95922.39
2019-05-26T20:35:22.808Z,95920.03
2019-05-26T20:37:49.921Z,95914.16
2019-05-26T20:40:17.093Z,95934.84
2019-05-26T20:42:44.214Z,95927.31
2019-05-26T20:45:52.194Z,95921.67
2019-05-26T20:48:19.261Z,95925.77
2019-05-26T20:50:46.336Z,95918.73
2019-05-26T20:53:13.442Z,95919.05
2019-05-26T20:55:40.569Z,95918.81
2019-05-26T20:58:07.675Z,95917.52
2019-05-26T21:00:34.785Z,95921.35
2019-05-26T21:03:01.869Z,95926.80
2019-05-26T21:05:28.968Z,95925.48
2019-05-26T21:07:56.082Z,95920.63
2019-05-26T21:10:23.167Z,95925.58
2019-05-26T21:12:50.266Z,95925.33
2019-05-26T21:15:17.427Z,95924.80
2019-05-26T21:17:44.502Z,95927.81
2019-05-26T21:20:11.961Z,95922.69
2019-05-26T21:22:39.113Z,95921.37
2019-05-26T21:25:06.891Z,95929.81
2019-05-26T21:27:33.988Z,95921.70
2019-05-26T21:30:01.063Z,95924.71
2019-05-26T21:32:31.234Z,95921.78
2019-05-26T21:34:57.195Z,95919.09
2019-05-26T21:37:24.317Z,95918.56
2019-05-26T21:39:51.424Z,95916.14
2019-05-26T21:42:18.529Z,95921.58
2019-05-26T21:44:45.625Z,95920.23
2019-05-26T21:47:12.730Z,95925.98
2019-05-26T21:49:39.824Z,95920.86
2019-05-26T21:52:06.965Z,95921.41
2019-05-26T21:54:34.115Z,95926.04
2019-05-26T21:57:01.205Z,95922.80
2019-05-26T21:59:28.384Z,95921.19
2019-05-26T22:01:55.414Z,95924.48
2019-05-26T22:04:22.513Z,95914.75
2019-05-26T22:06:49.659Z,95912.09
2019-05-26T22:09:16.729Z,95912.09
2019-05-26T22:11:43.826Z,95912.09
2019-05-26T22:14:10.908Z,95914.54
2019-05-26T22:16:37.987Z,95911.33
2019-05-26T22:19:05.139Z,95909.98
2019-05-26T22:21:32.248Z,95908.37
2019-05-26T22:23:59.340Z,95906.75
2019-05-26T22:26:26.453Z,95908.12
2019-05-26T22:28:53.581Z,95910.56
2019-05-26T22:31:20.657Z,95904.88
2019-05-26T22:33:47.761Z,95903.30
2019-05-26T22:36:14.871Z,95893.30
2019-05-26T22:38:41.971Z,95893.30
2019-05-26T22:41:09.069Z,95883.59
2019-05-26T22:43:36.152Z,95883.59
2019-05-26T22:46:03.241Z,95889.05
2019-05-26T22:48:30.350Z,95884.73
2019-05-26T22:50:57.452Z,95882.83
2019-05-26T22:53:24.559Z,95868.80
2019-05-26T22:55:51.647Z,95882.07
2019-05-26T22:58:18.785Z,95873.70
2019-05-26T23:00:45.885Z,95866.12
2019-05-26T23:03:12.951Z,95870.99
2019-05-26T23:05:40.081Z,95862.13
2019-05-26T23:08:07.149Z,95873.22
2019-05-26T23:10:34.249Z,95872.95
2019-05-26T23:13:01.351Z,95870.79
2019-05-26T23:15:28.432Z,95874.84
2019-05-26T23:17:55.492Z,95872.42
2019-05-26T23:20:22.625Z,95868.94
2019-05-26T23:22:49.700Z,95868.94
2019-05-26T23:25:17.656Z,95862.19
2019-05-26T23:27:44.759Z,95860.03
2019-05-26T23:30:11.856Z,95863.55
2019-05-26T23:32:38.932Z,95863.55
2019-05-26T23:35:06.027Z,95856.52
2019-05-26T23:37:33.154Z,95856.52
2019-05-26T23:40:00.215Z,95856.52
2019-05-26T23:42:27.308Z,95862.50
2019-05-26T23:44:54.397Z,95867.37
2019-05-26T23:47:21.482Z,95866.55
2019-05-26T23:49:48.591Z,95859.53
2019-05-26T23:52:19.191Z,95865.48
2019-05-26T23:54:44.674Z,95857.63
2019-05-26T23:57:11.780Z,95867.64
2019-05-26T23:59:38.845Z,95860.88
